createdAt,value
2023-04-29T00:01:03.809Z,4.50
2023-04-29T00:03:32.827Z,7.90
2023-04-29T00:06:00.484Z,5.50
2023-04-29T00:08:27.712Z,5.30
2023-04-29T00:10:54.562Z,5.63
2023-04-29T00:13:21.526Z,5.22
2023-04-29T00:15:48.340Z,4.95
2023-04-29T00:18:14.917Z,5.07
2023-04-29T00:20:43.376Z,6.03
2023-04-29T00:23:10.101Z,5.60
2023-04-29T00:25:38.447Z,4.70
2023-04-29T00:28:08.008Z,4.68
2023-04-29T00:30:34.952Z,4.80
2023-04-29T00:33:01.853Z,4.93
2023-04-29T00:35:28.492Z,4.35
2023-04-29T00:37:56.121Z,5.82
2023-04-29T00:40:22.766Z,5.10
2023-04-29T00:42:49.431Z,5.97
2023-04-29T00:45:16.406Z,6.17
2023-04-29T00:47:43.196Z,7.00
2023-04-29T00:50:10.031Z,4.88
2023-04-29T00:52:38.413Z,5.53
2023-04-29T00:55:09.222Z,4.45
2023-04-29T00:57:38.527Z,4.00
2023-04-29T01:00:05.985Z,4.35
2023-04-29T01:02:33.949Z,4.30
2023-04-29T01:05:00.760Z,4.20
2023-04-29T01:07:34.855Z,4.43
2023-04-29T01:10:20.073Z,4.47
2023-04-29T01:12:53.866Z,3.88
2023-04-29T01:15:23.669Z,5.05
2023-04-29T01:18:01.418Z,3.97
2023-04-29T01:20:28.847Z,4.63
2023-04-29T01:22:56.722Z,4.30
2023-04-29T01:25:23.841Z,4.18
2023-04-29T01:28:11.631Z,4.30
2023-04-29T01:31:05.052Z,4.53
2023-04-29T01:33:50.266Z,4.90
2023-04-29T01:36:41.984Z,4.47
2023-04-29T01:39:21.455Z,4.50
2023-04-29T01:41:59.295Z,4.88
2023-04-29T01:44:30.136Z,5.68
2023-04-29T01:46:57.304Z,5.20
2023-04-29T01:49:28.081Z,5.47
2023-04-29T01:51:55.157Z,7.70
2023-04-29T01:54:22.884Z,8.88
2023-04-29T01:56:49.990Z,8.90
2023-04-29T01:59:16.783Z,8.05
2023-04-29T02:01:44.294Z,7.87
2023-04-29T02:04:10.842Z,9.07
2023-04-29T02:06:37.532Z,8.73
2023-04-29T02:09:04.626Z,7.95
2023-04-29T02:11:31.483Z,8.55
2023-04-29T02:14:00.406Z,9.43
2023-04-29T02:16:27.054Z,9.60
2023-04-29T02:18:53.651Z,10.07
2023-04-29T02:21:20.281Z,10.13
2023-04-29T02:23:47.273Z,10.55
2023-04-29T02:26:15.597Z,11.27
2023-04-29T02:28:42.672Z,9.98
2023-04-29T02:31:09.279Z,12.02
2023-04-29T02:33:35.952Z,13.35
2023-04-29T02:36:02.602Z,12.10
2023-04-29T02:38:29.208Z,14.63
2023-04-29T02:40:55.801Z,17.95
2023-04-29T02:43:22.397Z,15.68
2023-04-29T02:45:48.954Z,18.85
2023-04-29T02:48:16.278Z,20.83
2023-04-29T02:50:44.587Z,24.47
2023-04-29T02:53:11.684Z,25.83
2023-04-29T02:55:38.877Z,25.60
2023-04-29T02:58:05.536Z,27.75
2023-04-29T03:00:32.374Z,31.95
2023-04-29T03:02:59.281Z,29.53
2023-04-29T03:05:26.078Z,37.88
2023-04-29T03:07:52.708Z,29.73
2023-04-29T03:10:20.023Z,31.15
2023-04-29T03:12:46.735Z,37.55
2023-04-29T03:15:13.911Z,26.20
2023-04-29T03:17:40.612Z,32.47
2023-04-29T03:20:08.078Z,30.92
2023-04-29T03:22:35.062Z,37.33
2023-04-29T03:25:01.714Z,30.40
2023-04-29T03:27:28.491Z,35.27
2023-04-29T03:29:55.344Z,34.83
2023-04-29T03:32:22.164Z,34.28
2023-04-29T03:34:49.610Z,35.05
2023-04-29T03:37:16.673Z,34.72
2023-04-29T03:39:43.206Z,36.23
2023-04-29T03:42:09.990Z,43.33
2023-04-29T03:44:36.637Z,40.30
2023-04-29T03:47:03.192Z,45.22
2023-04-29T03:49:29.971Z,45.70
2023-04-29T03:51:56.569Z,43.90
2023-04-29T03:54:23.751Z,59.78
2023-04-29T03:56:50.348Z,67.40
2023-04-29T03:59:17.132Z,40.15
2023-04-29T04:01:46.951Z,49.33
2023-04-29T04:04:13.806Z,64.10
2023-04-29T04:06:40.404Z,73.50
2023-04-29T04:09:07.122Z,66.55
2023-04-29T04:11:33.680Z,86.93
2023-04-29T04:14:01.250Z,70.00
2023-04-29T04:16:28.179Z,58.87
2023-04-29T04:18:54.966Z,76.57
2023-04-29T04:21:21.521Z,82.45
2023-04-29T04:23:49.817Z,71.78
2023-04-29T04:26:16.711Z,77.15
2023-04-29T04:28:43.454Z,65.30
2023-04-29T04:31:10.253Z,65.30
2023-04-29T04:33:37.001Z,58.65
2023-04-29T04:36:03.772Z,62.28
2023-04-29T04:38:30.336Z,79.72
2023-04-29T04:40:56.966Z,67.70
2023-04-29T04:43:23.936Z,69.35
2023-04-29T04:45:53.725Z,73.45
2023-04-29T04:48:20.364Z,60.85
2023-04-29T04:50:47.397Z,71.47
2023-04-29T04:53:14.020Z,61.87
2023-04-29T04:55:40.581Z,56.47
2023-04-29T04:58:07.176Z,60.83
2023-04-29T05:00:33.895Z,59.70
2023-04-29T05:03:00.677Z,56.40
2023-04-29T05:05:28.459Z,57.33
2023-04-29T05:07:55.222Z,63.35
2023-04-29T05:10:26.505Z,48.30
2023-04-29T05:12:53.112Z,44.97
2023-04-29T05:15:19.646Z,40.75
2023-04-29T05:17:46.327Z,36.17
2023-04-29T05:20:13.074Z,42.75
2023-04-29T05:22:39.678Z,41.10
2023-04-29T05:25:06.942Z,40.58
2023-04-29T05:27:33.520Z,41.20
2023-04-29T05:30:00.312Z,40.67
2023-04-29T05:32:27.114Z,33.10
2023-04-29T05:34:57.064Z,30.25
2023-04-29T05:37:23.606Z,29.42
2023-04-29T05:39:50.406Z,33.85
2023-04-29T05:42:17.023Z,39.43
2023-04-29T05:44:43.641Z,30.48
2023-04-29T05:47:10.239Z,28.85
2023-04-29T05:49:36.819Z,37.00
2023-04-29T05:52:08.344Z,27.60
2023-04-29T05:54:35.413Z,25.23
2023-04-29T05:57:05.287Z,28.15
2023-04-29T05:59:32.712Z,24.90
2023-04-29T06:02:00.377Z,29.70
2023-04-29T06:04:27.970Z,23.35
2023-04-29T06:06:58.557Z,20.30
2023-04-29T06:09:27.982Z,19.77
2023-04-29T06:11:55.013Z,18.58
2023-04-29T06:14:21.888Z,18.85
2023-04-29T06:16:49.311Z,17.02
2023-04-29T06:19:15.926Z,15.57
2023-04-29T06:21:42.645Z,15.52
2023-04-29T06:24:09.397Z,16.88
2023-04-29T06:26:36.028Z,17.75
2023-04-29T06:29:02.797Z,17.75
2023-04-29T06:31:29.601Z,18.57
2023-04-29T06:33:56.918Z,15.10
2023-04-29T06:36:23.472Z,12.82
2023-04-29T06:38:50.033Z,13.32
2023-04-29T06:41:16.615Z,12.15
2023-04-29T06:43:43.470Z,13.43
2023-04-29T06:46:10.249Z,13.25
2023-04-29T06:48:37.315Z,12.73
2023-04-29T06:51:04.126Z,12.07
2023-04-29T06:53:30.861Z,13.40
2023-04-29T06:55:57.638Z,12.33
2023-04-29T06:58:24.243Z,12.73
2023-04-29T07:00:51.468Z,12.90
2023-04-29T07:03:19.219Z,12.48
2023-04-29T07:05:46.187Z,12.63
2023-04-29T07:08:13.922Z,10.57
2023-04-29T07:10:42.136Z,9.90
2023-04-29T07:13:09.291Z,9.73
2023-04-29T07:15:37.113Z,11.95
2023-04-29T07:18:07.102Z,12.98
2023-04-29T07:20:37.020Z,9.93
2023-04-29T07:23:03.662Z,8.75
2023-04-29T07:25:30.949Z,9.77
2023-04-29T07:27:57.635Z,9.55
2023-04-29T07:30:24.455Z,8.85
2023-04-29T07:32:51.065Z,9.93
2023-04-29T07:35:17.810Z,10.68
2023-04-29T07:37:44.615Z,9.80
2023-04-29T07:40:11.647Z,9.10
2023-04-29T07:42:38.347Z,9.43
2023-04-29T07:45:05.837Z,9.23
2023-04-29T07:47:32.637Z,9.27
2023-04-29T07:49:59.418Z,8.70
2023-04-29T07:52:26.112Z,9.82
2023-04-29T07:54:52.844Z,9.80
2023-04-29T07:57:19.822Z,9.40
2023-04-29T07:59:46.472Z,9.10
2023-04-29T08:02:14.026Z,10.63
2023-04-29T08:04:44.195Z,11.40
2023-04-29T08:07:11.126Z,13.02
2023-04-29T08:09:37.639Z,13.57
2023-04-29T08:12:04.996Z,11.55
2023-04-29T08:14:31.588Z,13.25
2023-04-29T08:16:58.452Z,13.70
2023-04-29T08:19:25.109Z,10.85
2023-04-29T08:21:52.193Z,8.30
2023-04-29T08:24:18.812Z,8.95
2023-04-29T08:26:45.364Z,7.95
2023-04-29T08:29:11.906Z,8.27
2023-04-29T08:31:38.536Z,7.43
2023-04-29T08:34:05.145Z,9.50
2023-04-29T08:36:31.884Z,7.60
2023-04-29T08:38:58.796Z,7.53
2023-04-29T08:41:25.770Z,7.10
2023-04-29T08:43:52.502Z,7.53
2023-04-29T08:46:20.827Z,6.13
2023-04-29T08:48:48.400Z,6.30
2023-04-29T08:51:15.234Z,6.50
2023-04-29T08:53:41.938Z,7.13
2023-04-29T08:56:20.826Z,5.72
2023-04-29T08:58:54.768Z,6.63
2023-04-29T09:01:23.283Z,5.85
2023-04-29T09:03:57.326Z,5.90
2023-04-29T09:06:24.068Z,7.65
2023-04-29T09:08:50.899Z,6.07
2023-04-29T09:11:18.412Z,6.00
2023-04-29T09:13:45.090Z,5.72
2023-04-29T09:16:12.998Z,5.25
2023-04-29T09:18:42.900Z,9.95
2023-04-29T09:21:22.344Z,15.95
2023-04-29T09:23:57.499Z,8.93
2023-04-29T09:26:25.306Z,6.22
2023-04-29T09:29:09.390Z,5.50
2023-04-29T09:31:38.093Z,5.35
2023-04-29T09:34:05.120Z,5.60
2023-04-29T09:36:55.169Z,5.00
2023-04-29T09:39:23.226Z,5.60
2023-04-29T09:41:52.586Z,5.80
2023-04-29T09:44:19.917Z,6.50
2023-04-29T09:46:57.693Z,6.03
2023-04-29T09:49:25.458Z,6.83
2023-04-29T09:51:53.741Z,6.13
2023-04-29T09:54:21.982Z,7.05
2023-04-29T09:56:53.354Z,7.63
2023-04-29T09:59:20.773Z,6.47
2023-04-29T10:01:55.983Z,6.80
2023-04-29T10:04:25.533Z,7.35
2023-04-29T10:06:54.192Z,5.85
2023-04-29T10:09:22.523Z,6.15
2023-04-29T10:11:53.870Z,6.60
2023-04-29T10:14:25.058Z,6.70
2023-04-29T10:17:06.271Z,6.53
2023-04-29T10:20:00.108Z,6.32
2023-04-29T10:22:34.015Z,7.45
2023-04-29T10:25:02.079Z,5.90
2023-04-29T10:27:31.780Z,5.67
2023-04-29T10:29:59.114Z,6.10
2023-04-29T10:32:30.544Z,4.57
2023-04-29T10:35:04.042Z,5.80
2023-04-29T10:37:31.477Z,5.85
2023-04-29T10:40:18.796Z,6.17
2023-04-29T10:42:50.548Z,4.88
2023-04-29T10:45:32.772Z,4.80
2023-04-29T10:48:03.040Z,5.50
2023-04-29T10:50:30.312Z,6.10
2023-04-29T10:52:57.929Z,7.13
2023-04-29T10:55:25.808Z,5.55
2023-04-29T10:57:57.341Z,6.32
2023-04-29T11:00:28.463Z,6.68
2023-04-29T11:02:56.123Z,5.50
2023-04-29T11:05:38.215Z,7.07
2023-04-29T11:08:23.305Z,4.47
2023-04-29T11:11:02.310Z,4.60
2023-04-29T11:13:30.924Z,4.57
2023-04-29T11:16:11.929Z,4.75
2023-04-29T11:19:17.886Z,4.67
2023-04-29T11:21:47.317Z,4.68
2023-04-29T11:24:17.637Z,5.22
2023-04-29T11:26:47.518Z,4.50
2023-04-29T11:29:18.423Z,4.80
2023-04-29T11:31:45.152Z,4.37
2023-04-29T11:34:11.858Z,4.70
2023-04-29T11:36:38.572Z,7.00
2023-04-29T11:39:05.294Z,4.82
2023-04-29T11:41:32.242Z,4.65
2023-04-29T11:44:00.332Z,4.60
2023-04-29T11:46:31.033Z,4.80
2023-04-29T11:48:57.932Z,5.07
2023-04-29T11:51:24.982Z,4.70
2023-04-29T11:53:51.722Z,4.45
2023-04-29T11:56:23.147Z,5.70
2023-04-29T11:58:49.944Z,4.97
2023-04-29T12:01:16.604Z,4.68
2023-04-29T12:03:44.525Z,4.30
2023-04-29T12:06:13.688Z,5.75
2023-04-29T12:08:40.215Z,4.77
2023-04-29T12:11:07.598Z,5.55
2023-04-29T12:13:37.846Z,5.35
2023-04-29T12:16:06.054Z,5.13
2023-04-29T12:18:32.824Z,4.10
2023-04-29T12:20:59.485Z,4.70
2023-04-29T12:23:28.976Z,4.75
2023-04-29T12:26:00.465Z,4.65
2023-04-29T12:28:27.497Z,5.47
2023-04-29T12:30:55.293Z,5.00
2023-04-29T12:33:23.852Z,5.17
2023-04-29T12:35:51.596Z,6.22
2023-04-29T12:38:30.210Z,4.40
2023-04-29T12:41:01.590Z,4.35
2023-04-29T12:43:33.985Z,4.80
2023-04-29T12:46:02.746Z,4.60
2023-04-29T12:48:34.027Z,5.13
2023-04-29T12:51:02.097Z,4.82
2023-04-29T12:53:32.401Z,5.10
2023-04-29T12:55:59.800Z,5.13
2023-04-29T12:58:30.380Z,4.17
2023-04-29T13:00:57.940Z,4.82
2023-04-29T13:03:25.069Z,4.22
2023-04-29T13:05:53.938Z,4.70
2023-04-29T13:08:21.316Z,4.85
2023-04-29T13:10:47.986Z,4.10
2023-04-29T13:13:14.613Z,4.20
2023-04-29T13:15:41.528Z,4.68
2023-04-29T13:18:08.218Z,4.90
2023-04-29T13:20:40.839Z,4.72
2023-04-29T13:23:09.202Z,4.60
2023-04-29T13:25:36.178Z,5.60
2023-04-29T13:28:03.052Z,5.35
2023-04-29T13:30:29.728Z,6.57
2023-04-29T13:33:01.292Z,5.15
2023-04-29T13:35:31.208Z,5.80
2023-04-29T13:37:57.964Z,5.30
2023-04-29T13:40:27.711Z,5.55
2023-04-29T13:43:02.160Z,5.70
2023-04-29T13:45:38.922Z,5.55
2023-04-29T13:48:12.426Z,7.03
2023-04-29T13:53:38.694Z,4.93
2023-04-29T13:59:19.585Z,5.72
2023-04-29T14:02:08.705Z,7.37
2023-04-29T14:04:11.723Z,5.85
2023-04-29T14:06:38.609Z,7.38
2023-04-29T14:09:05.223Z,7.05
2023-04-29T14:11:36.678Z,6.60
2023-04-29T14:14:03.865Z,5.80
2023-04-29T14:16:30.903Z,6.28
2023-04-29T14:18:57.799Z,6.50
2023-04-29T14:21:24.480Z,5.38
2023-04-29T14:23:51.168Z,5.95
2023-04-29T14:26:27.782Z,6.23
2023-04-29T14:28:58.761Z,5.95
2023-04-29T14:31:28.446Z,5.57
2023-04-29T14:33:56.657Z,6.28
2023-04-29T14:36:25.910Z,5.50
2023-04-29T14:38:52.890Z,5.87
2023-04-29T14:41:21.512Z,7.00
2023-04-29T14:43:48.127Z,5.90
2023-04-29T14:46:14.800Z,6.13
2023-04-29T14:48:41.480Z,5.75
2023-04-29T14:51:08.342Z,7.10
2023-04-29T14:53:34.979Z,5.70
2023-04-29T14:56:03.907Z,5.85
2023-04-29T14:58:30.430Z,6.95
2023-04-29T15:00:57.129Z,8.70
2023-04-29T15:03:23.880Z,6.70
2023-04-29T15:05:51.828Z,7.75
2023-04-29T15:08:19.528Z,7.03
2023-04-29T15:10:48.007Z,7.13
2023-04-29T15:13:14.872Z,7.82
2023-04-29T15:15:42.279Z,7.80
2023-04-29T15:18:09.512Z,7.45
2023-04-29T15:20:37.320Z,5.97
2023-04-29T15:23:05.291Z,7.70
2023-04-29T15:25:33.864Z,8.30
2023-04-29T15:28:01.579Z,7.27
2023-04-29T15:30:28.438Z,6.75
2023-04-29T15:32:55.593Z,7.35
2023-04-29T15:35:22.326Z,8.80
2023-04-29T15:37:49.301Z,7.22
2023-04-29T15:40:17.247Z,7.50
2023-04-29T15:42:44.173Z,6.40
2023-04-29T15:45:11.395Z,6.10
2023-04-29T15:47:38.149Z,6.97
2023-04-29T15:50:05.325Z,7.00
2023-04-29T15:52:31.959Z,7.37
2023-04-29T15:54:58.577Z,6.90
2023-04-29T15:57:26.265Z,7.95
2023-04-29T15:59:53.261Z,10.90
2023-04-29T16:02:21.396Z,8.80
2023-04-29T16:04:48.213Z,7.20
2023-04-29T16:07:14.880Z,7.75
2023-04-29T16:09:42.479Z,6.88
2023-04-29T16:12:11.797Z,6.80
2023-04-29T16:14:38.480Z,8.55
2023-04-29T16:17:05.916Z,6.17
2023-04-29T16:19:34.531Z,8.45
2023-04-29T16:22:03.224Z,8.38
2023-04-29T16:24:30.250Z,7.72
2023-04-29T16:26:56.876Z,7.10
2023-04-29T16:29:23.462Z,6.17
2023-04-29T16:31:50.279Z,7.18
2023-04-29T16:34:17.115Z,8.18
2023-04-29T16:36:43.935Z,6.05
2023-04-29T16:39:10.628Z,6.35
2023-04-29T16:41:37.694Z,7.97
2023-04-29T16:44:04.652Z,7.65
2023-04-29T16:46:32.722Z,6.20
2023-04-29T16:48:59.583Z,6.40
2023-04-29T16:51:27.569Z,8.10
2023-04-29T16:53:54.263Z,6.23
2023-04-29T16:56:22.783Z,7.05
2023-04-29T16:58:49.540Z,5.95
2023-04-29T17:01:19.730Z,5.93
2023-04-29T17:03:47.890Z,7.40
2023-04-29T17:06:16.044Z,6.20
2023-04-29T17:08:43.245Z,5.97
2023-04-29T17:11:10.569Z,6.95
2023-04-29T17:13:37.373Z,7.10
2023-04-29T17:16:04.249Z,6.07
2023-04-29T17:18:30.903Z,7.10
2023-04-29T17:20:57.481Z,8.48
2023-04-29T17:23:24.031Z,7.65
2023-04-29T17:25:50.912Z,6.68
2023-04-29T17:28:17.693Z,6.90
2023-04-29T17:30:44.344Z,6.30
2023-04-29T17:33:12.760Z,7.20
2023-04-29T17:35:39.680Z,5.55
2023-04-29T17:38:06.766Z,5.28
2023-04-29T17:40:33.386Z,5.72
2023-04-29T17:42:59.942Z,6.03
2023-04-29T17:45:26.566Z,5.43
2023-04-29T17:47:53.266Z,6.07
2023-04-29T17:50:19.983Z,5.68
2023-04-29T17:52:46.693Z,5.63
2023-04-29T17:55:13.422Z,6.37
2023-04-29T17:57:40.968Z,5.80
2023-04-29T18:00:08.704Z,5.60
2023-04-29T18:02:35.419Z,5.75
2023-04-29T18:05:03.485Z,6.57
2023-04-29T18:07:30.252Z,7.50
2023-04-29T18:09:58.278Z,6.22
2023-04-29T18:12:25.255Z,7.15
2023-04-29T18:14:52.133Z,6.18
2023-04-29T18:17:19.543Z,6.95
2023-04-29T18:19:48.664Z,6.47
2023-04-29T18:22:15.981Z,6.72
2023-04-29T18:24:42.679Z,6.60
2023-04-29T18:27:09.272Z,5.43
2023-04-29T18:29:35.934Z,5.80
2023-04-29T18:32:02.736Z,5.47
2023-04-29T18:34:30.183Z,6.13
2023-04-29T18:36:56.733Z,5.28
2023-04-29T18:39:23.555Z,5.68
2023-04-29T18:41:50.205Z,5.00
2023-04-29T18:44:16.926Z,5.50
2023-04-29T18:46:43.749Z,5.22
2023-04-29T18:49:17.149Z,7.93
2023-04-29T18:51:47.194Z,7.47
2023-04-29T18:54:15.792Z,6.65
2023-04-29T18:56:46.661Z,5.80
2023-04-29T18:59:16.002Z,9.15
2023-04-29T19:01:43.413Z,5.97
2023-04-29T19:04:10.464Z,6.55
2023-04-29T19:06:37.347Z,6.55
2023-04-29T19:09:04.425Z,6.57
2023-04-29T19:11:31.696Z,5.40
2023-04-29T19:13:58.239Z,6.13
2023-04-29T19:16:25.305Z,5.60
2023-04-29T19:18:52.025Z,6.30
2023-04-29T19:21:19.106Z,6.23
2023-04-29T19:23:45.766Z,7.15
2023-04-29T19:26:12.329Z,5.38
2023-04-29T19:28:38.877Z,6.25
2023-04-29T19:31:05.917Z,6.65
2023-04-29T19:33:33.023Z,8.63
2023-04-29T19:35:59.774Z,6.22
2023-04-29T19:38:26.403Z,7.93
2023-04-29T19:40:56.811Z,6.82
2023-04-29T19:43:24.283Z,7.15
2023-04-29T19:45:50.881Z,5.57
2023-04-29T19:48:17.641Z,5.95
2023-04-29T19:50:44.514Z,6.65
2023-04-29T19:53:11.691Z,5.53
2023-04-29T19:55:41.168Z,8.13
2023-04-29T19:58:08.213Z,6.47
2023-04-29T20:00:35.245Z,6.68
2023-04-29T20:03:02.428Z,6.90
2023-04-29T20:05:29.353Z,7.22
2023-04-29T20:07:56.171Z,6.47
2023-04-29T20:10:23.029Z,7.27
2023-04-29T20:12:49.876Z,6.18
2023-04-29T20:15:16.706Z,8.35
2023-04-29T20:17:44.850Z,9.07
2023-04-29T20:20:11.742Z,7.05
2023-04-29T20:22:39.113Z,7.33
2023-04-29T20:25:06.631Z,7.47
2023-04-29T20:27:33.344Z,7.60
2023-04-29T20:30:00.499Z,7.35
2023-04-29T20:32:27.485Z,7.25
2023-04-29T20:34:54.328Z,7.10
2023-04-29T20:37:21.164Z,7.35
2023-04-29T20:39:47.950Z,8.15
2023-04-29T20:42:14.793Z,7.78
2023-04-29T20:44:42.660Z,7.90
2023-04-29T20:47:09.878Z,8.07
2023-04-29T20:49:36.919Z,10.43
2023-04-29T20:52:06.530Z,7.78
2023-04-29T20:54:34.081Z,7.70
2023-04-29T20:57:01.728Z,6.32
2023-04-29T20:59:28.559Z,6.80
2023-04-29T21:01:55.398Z,7.28
2023-04-29T21:04:22.201Z,7.18
2023-04-29T21:06:51.328Z,5.90
2023-04-29T21:09:21.323Z,7.90
2023-04-29T21:11:48.424Z,6.33
2023-04-29T21:14:15.122Z,10.57
2023-04-29T21:16:42.662Z,7.25
2023-04-29T21:19:09.472Z,7.50
2023-04-29T21:21:36.138Z,6.38
2023-04-29T21:24:03.145Z,6.37
2023-04-29T21:26:30.087Z,5.55
2023-04-29T21:28:56.775Z,6.50
2023-04-29T21:31:23.398Z,6.13
2023-04-29T21:33:49.952Z,7.25
2023-04-29T21:36:16.640Z,6.80
2023-04-29T21:38:43.335Z,7.45
2023-04-29T21:41:25.195Z,6.85
2023-04-29T21:43:52.158Z,6.50
2023-04-29T21:46:19.902Z,6.93
2023-04-29T21:48:47.409Z,7.03
2023-04-29T21:51:13.985Z,8.00
2023-04-29T21:53:41.721Z,6.78
2023-04-29T21:56:08.365Z,7.55
2023-04-29T21:58:34.947Z,7.00
2023-04-29T22:01:04.074Z,6.20
2023-04-29T22:03:30.855Z,7.43
2023-04-29T22:05:57.922Z,6.28
2023-04-29T22:08:24.835Z,6.30
2023-04-29T22:10:51.710Z,6.88
2023-04-29T22:13:18.386Z,6.33
2023-04-29T22:15:45.068Z,7.13
2023-04-29T22:18:11.728Z,7.00
2023-04-29T22:20:38.471Z,6.93
2023-04-29T22:23:05.011Z,6.88
2023-04-29T22:25:31.701Z,8.47
2023-04-29T22:27:58.460Z,8.48
2023-04-29T22:30:25.074Z,8.30
2023-04-29T22:32:51.749Z,7.72
2023-04-29T22:35:18.602Z,6.43
2023-04-29T22:37:45.195Z,6.73
2023-04-29T22:40:12.918Z,6.88
2023-04-29T22:42:43.445Z,7.40
2023-04-29T22:45:12.433Z,5.90
2023-04-29T22:47:39.947Z,5.35
2023-04-29T22:50:07.111Z,7.63
2023-04-29T22:52:33.695Z,6.72
2023-04-29T22:55:00.279Z,6.88
2023-04-29T22:57:27.000Z,7.07
2023-04-29T22:59:55.382Z,6.47
2023-04-29T23:02:27.673Z,7.30
2023-04-29T23:04:56.441Z,6.78
2023-04-29T23:07:23.618Z,6.60
2023-04-29T23:09:51.121Z,6.72
2023-04-29T23:12:19.268Z,6.70
2023-04-29T23:14:46.492Z,6.03
2023-04-29T23:17:13.107Z,7.28
2023-04-29T23:19:39.760Z,7.13
2023-04-29T23:22:07.559Z,6.55
2023-04-29T23:24:35.537Z,6.22
2023-04-29T23:27:05.764Z,6.07
2023-04-29T23:29:35.296Z,6.13
2023-04-29T23:32:03.054Z,5.82
2023-04-29T23:34:29.777Z,5.97
2023-04-29T23:36:56.502Z,6.35
2023-04-29T23:39:23.310Z,6.40
2023-04-29T23:41:49.972Z,6.32
2023-04-29T23:44:16.527Z,5.90
2023-04-29T23:46:46.272Z,8.50
2023-04-29T23:49:12.930Z,7.55
2023-04-29T23:51:39.534Z,6.20
2023-04-29T23:54:06.331Z,8.85
2023-04-29T23:56:33.903Z,6.05
2023-04-29T23:59:00.701Z,7.00
